Portada
METAR-TAF:

METAR-TAF

Aeropuertos :

Oelwein Municipal Airport

Oelwein, Iowa, Estados Unidos

latitud: 42-40-51N, longitud: 091-58-28W, altitud: 328 m

Observación

El informe se hizo hace 36 minutos, a las 19:55 UTC
Viento 10 kt del norte
Temperatura 20°C
Humedad 88%
Presión 1024 hPa
Visibilidad: 16.1 km
Cielo cubierto a una altura de 1700 ft

METAR: KOLZ 191955Z AUTO 35010KT 10SM OVC017 20/18 A3025 RMK A01

Hora: 15:31 (20:31 UTC)


TAF: falta

Observaciones y pronósticos meteorológicos de más de 4000 aeropuertos (mensajes METAR y TAF).

Los puntos amarillos y rojos representan las estaciones disponibles.

Ponga el ratón en el punto deseado para ver el nombre de la estación.

Haga clic para ver las observaciones y los pronósticos meteorológicos.

Para cambiar el mapa : haga clic en los botones verdes con una cruz de color negro para hacer un zoom, en el botón verde con un guión para alejar o en las flechas verdes para mapas adyacentes.


METAR-TAF: